createdAt,value
2018-09-27T00:01:26.372Z,2.50
2018-09-27T00:03:54.576Z,2.30
2018-09-27T00:06:22.859Z,2.60
2018-09-27T00:08:51.159Z,2.55
2018-09-27T00:11:19.532Z,2.67
2018-09-27T00:13:47.956Z,2.70
2018-09-27T00:16:16.167Z,2.40
2018-09-27T00:18:44.447Z,2.27
2018-09-27T00:21:12.620Z,2.42
2018-09-27T00:23:40.882Z,1.75
2018-09-27T00:26:09.289Z,1.90
2018-09-27T00:28:37.608Z,1.75
2018-09-27T00:31:06.084Z,1.95
2018-09-27T00:33:34.422Z,1.87
2018-09-27T00:36:02.804Z,1.95
2018-09-27T00:38:31.179Z,1.52
2018-09-27T00:40:59.506Z,1.80
2018-09-27T00:43:27.801Z,1.42
2018-09-27T00:45:56.036Z,1.80
2018-09-27T00:48:24.267Z,2.05
2018-09-27T00:50:52.468Z,2.12
2018-09-27T00:53:20.673Z,1.92
2018-09-27T00:55:48.938Z,1.90
2018-09-27T00:58:17.127Z,2.00
2018-09-27T01:00:45.340Z,1.85
2018-09-27T01:03:13.644Z,2.20
2018-09-27T01:05:41.959Z,1.95
2018-09-27T01:08:10.193Z,1.85
2018-09-27T01:10:38.419Z,2.40
2018-09-27T01:13:06.788Z,1.55
2018-09-27T01:15:34.987Z,2.10
2018-09-27T01:18:04.146Z,2.10
2018-09-27T01:20:32.351Z,1.50
2018-09-27T01:23:00.580Z,2.47
2018-09-27T01:25:28.968Z,1.90
2018-09-27T01:27:57.244Z,1.55
2018-09-27T01:30:25.546Z,1.50
2018-09-27T01:32:53.998Z,1.60
2018-09-27T01:35:22.265Z,1.72
2018-09-27T01:37:50.555Z,2.47
2018-09-27T01:40:18.824Z,2.00
2018-09-27T01:42:47.192Z,2.17
2018-09-27T01:45:15.934Z,2.30
2018-09-27T01:47:44.311Z,2.60
2018-09-27T01:50:12.606Z,2.47
2018-09-27T01:52:40.837Z,2.90
2018-09-27T01:55:09.257Z,3.42
2018-09-27T01:57:37.508Z,2.42
2018-09-27T02:00:05.795Z,2.27
2018-09-27T02:02:33.999Z,2.42
2018-09-27T02:05:02.239Z,2.58
2018-09-27T02:07:30.539Z,2.40
2018-09-27T02:09:58.795Z,2.67
2018-09-27T02:12:27.065Z,2.60
2018-09-27T02:14:55.381Z,2.60
2018-09-27T02:17:23.738Z,2.42
2018-09-27T02:19:52.058Z,2.33
2018-09-27T02:22:20.451Z,1.82
2018-09-27T02:24:48.811Z,2.52
2018-09-27T02:27:17.090Z,2.10
2018-09-27T02:29:45.337Z,2.12
2018-09-27T02:32:13.586Z,1.50
2018-09-27T02:34:41.924Z,2.12
2018-09-27T02:37:10.247Z,1.70
2018-09-27T02:39:38.631Z,1.80
2018-09-27T02:42:07.019Z,1.90
2018-09-27T02:44:35.327Z,2.17
2018-09-27T02:47:03.595Z,2.12
2018-09-27T02:49:31.843Z,1.85
2018-09-27T02:52:00.103Z,2.12
2018-09-27T02:54:28.323Z,2.35
2018-09-27T02:56:56.646Z,2.80
2018-09-27T02:59:24.882Z,1.70
2018-09-27T03:01:53.129Z,2.98
2018-09-27T03:04:21.419Z,2.10
2018-09-27T03:06:49.667Z,2.00
2018-09-27T03:09:18.177Z,1.92
2018-09-27T03:11:46.410Z,2.25
2018-09-27T03:14:14.640Z,1.55
2018-09-27T03:16:42.883Z,2.25
2018-09-27T03:19:11.150Z,2.30
2018-09-27T03:21:39.436Z,1.77
2018-09-27T03:24:07.657Z,3.12
2018-09-27T03:26:35.991Z,2.83
2018-09-27T03:29:04.256Z,2.55
2018-09-27T03:31:32.522Z,2.12
2018-09-27T03:34:00.842Z,2.45
2018-09-27T03:36:29.128Z,2.35
2018-09-27T03:38:57.458Z,2.50
2018-09-27T03:41:25.778Z,2.62
2018-09-27T03:43:53.947Z,3.08
2018-09-27T03:46:22.166Z,2.80
2018-09-27T03:48:50.409Z,3.08
2018-09-27T03:51:18.690Z,4.00
2018-09-27T03:53:47.047Z,3.95
2018-09-27T03:56:15.230Z,3.33
2018-09-27T03:58:43.436Z,3.95
2018-09-27T04:01:11.748Z,3.90
2018-09-27T04:03:40.024Z,2.92
2018-09-27T04:06:08.331Z,3.05
2018-09-27T04:08:36.599Z,2.77
2018-09-27T04:11:04.926Z,2.55
2018-09-27T04:13:33.177Z,2.10
2018-09-27T04:16:01.921Z,2.30
2018-09-27T04:18:30.228Z,2.27
2018-09-27T04:20:58.725Z,2.95
2018-09-27T04:23:26.947Z,2.90
2018-09-27T04:25:55.183Z,2.55
2018-09-27T04:28:23.434Z,2.27
2018-09-27T04:30:51.698Z,2.85
2018-09-27T04:33:19.907Z,2.40
2018-09-27T04:35:48.704Z,2.05
2018-09-27T04:38:16.944Z,2.92
2018-09-27T04:40:45.285Z,2.55
2018-09-27T04:43:13.642Z,2.62
2018-09-27T04:45:48.446Z,2.30
2018-09-27T04:48:16.696Z,3.20
2018-09-27T04:50:45.009Z,2.40
2018-09-27T04:53:13.227Z,2.17
2018-09-27T04:55:41.465Z,2.37
2018-09-27T04:58:09.934Z,3.02
2018-09-27T05:00:38.319Z,2.72
2018-09-27T05:03:06.879Z,3.00
2018-09-27T05:05:35.163Z,3.35
2018-09-27T05:08:03.543Z,3.15
2018-09-27T05:10:31.927Z,3.20
2018-09-27T05:13:00.225Z,3.72
2018-09-27T05:15:28.541Z,3.40
2018-09-27T05:17:56.800Z,3.02
2018-09-27T05:20:25.242Z,3.70
2018-09-27T05:22:53.610Z,2.83
2018-09-27T05:25:21.931Z,3.60
2018-09-27T05:27:50.252Z,4.30
2018-09-27T05:30:18.492Z,2.80
2018-09-27T05:32:46.838Z,4.47
2018-09-27T05:35:15.179Z,4.60
2018-09-27T05:37:43.546Z,3.60
2018-09-27T05:40:11.892Z,3.30
2018-09-27T05:42:40.154Z,4.28
2018-09-27T05:45:08.892Z,4.20
2018-09-27T05:47:37.207Z,3.58
2018-09-27T05:50:06.636Z,4.03
2018-09-27T05:52:34.928Z,4.60
2018-09-27T05:55:03.280Z,4.35
2018-09-27T05:57:31.700Z,3.70
2018-09-27T06:00:00.150Z,4.80
2018-09-27T06:02:28.585Z,3.85
2018-09-27T06:04:56.927Z,4.92
2018-09-27T06:07:25.264Z,5.35
2018-09-27T06:09:53.614Z,5.90
2018-09-27T06:12:21.961Z,4.78
2018-09-27T06:14:50.307Z,4.78
2018-09-27T06:17:18.633Z,4.80
2018-09-27T06:19:47.003Z,6.17
2018-09-27T06:22:15.306Z,5.60
2018-09-27T06:24:43.616Z,5.28
2018-09-27T06:27:11.947Z,6.15
2018-09-27T06:29:40.229Z,4.17
2018-09-27T06:32:08.566Z,5.55
2018-09-27T06:34:36.931Z,4.75
2018-09-27T06:37:05.244Z,4.47
2018-09-27T06:39:33.499Z,6.03
2018-09-27T06:42:01.849Z,4.58
2018-09-27T06:44:30.165Z,3.95
2018-09-27T06:46:58.547Z,4.53
2018-09-27T06:49:26.751Z,4.05
2018-09-27T06:51:55.079Z,4.22
2018-09-27T06:54:23.351Z,4.83
2018-09-27T06:56:51.783Z,4.22
2018-09-27T06:59:20.183Z,5.00
2018-09-27T07:01:48.450Z,4.15
2018-09-27T07:04:16.964Z,4.75
2018-09-27T07:06:45.235Z,4.12
2018-09-27T07:09:14.168Z,3.67
2018-09-27T07:11:42.467Z,4.95
2018-09-27T07:14:11.457Z,5.60
2018-09-27T07:16:39.831Z,5.20
2018-09-27T07:19:08.778Z,4.95
2018-09-27T07:21:37.075Z,4.70
2018-09-27T07:24:05.379Z,6.75
2018-09-27T07:26:33.723Z,5.83
2018-09-27T07:29:02.119Z,5.83
2018-09-27T07:31:30.448Z,5.80
2018-09-27T07:33:58.683Z,5.47
2018-09-27T07:36:26.982Z,6.05
2018-09-27T07:38:55.245Z,4.50
2018-09-27T07:41:23.535Z,5.30
2018-09-27T07:43:51.863Z,4.00
2018-09-27T07:46:20.155Z,3.72
2018-09-27T07:48:48.369Z,4.10
2018-09-27T07:51:16.717Z,3.65
2018-09-27T07:53:45.023Z,3.60
2018-09-27T07:56:13.298Z,3.30
2018-09-27T07:58:41.656Z,3.45
2018-09-27T08:01:10.027Z,4.53
2018-09-27T08:03:38.468Z,4.90
2018-09-27T08:06:06.936Z,5.00
2018-09-27T08:08:35.296Z,4.15
2018-09-27T08:11:03.760Z,5.22
2018-09-27T08:13:32.100Z,5.62
2018-09-27T08:16:00.461Z,5.72
2018-09-27T08:18:28.871Z,4.97
2018-09-27T08:20:57.258Z,5.40
2018-09-27T08:23:25.473Z,4.95
2018-09-27T08:25:53.731Z,5.37
2018-09-27T08:28:22.115Z,5.37
2018-09-27T08:30:50.503Z,5.12
2018-09-27T08:33:18.826Z,5.20
2018-09-27T08:35:47.347Z,5.17
2018-09-27T08:38:16.163Z,5.10
2018-09-27T08:40:44.324Z,4.47
2018-09-27T08:43:12.743Z,5.97
2018-09-27T08:45:41.228Z,5.30
2018-09-27T08:48:09.635Z,5.37
2018-09-27T08:50:37.951Z,4.83
2018-09-27T08:53:06.475Z,5.20
2018-09-27T08:55:35.021Z,5.33
2018-09-27T08:58:03.303Z,4.90
2018-09-27T09:00:31.623Z,4.67
2018-09-27T09:02:59.985Z,5.90
2018-09-27T09:05:28.287Z,4.83
2018-09-27T09:07:56.592Z,5.83
2018-09-27T09:10:24.867Z,6.30
2018-09-27T09:12:53.309Z,5.17
2018-09-27T09:15:21.805Z,6.63
2018-09-27T09:17:50.107Z,5.67
2018-09-27T09:20:18.455Z,5.70
2018-09-27T09:22:47.352Z,6.23
2018-09-27T09:25:15.687Z,6.30
2018-09-27T09:27:43.949Z,5.17
2018-09-27T09:30:12.320Z,6.47
2018-09-27T09:32:40.530Z,5.77
2018-09-27T09:35:08.875Z,5.40
2018-09-27T09:37:37.170Z,6.07
2018-09-27T09:40:05.732Z,6.20
2018-09-27T09:42:34.059Z,5.97
2018-09-27T09:45:02.528Z,6.27
2018-09-27T09:47:30.770Z,5.40
2018-09-27T09:49:59.117Z,5.50
2018-09-27T09:52:27.421Z,6.33
2018-09-27T09:54:55.764Z,7.33
2018-09-27T09:57:24.173Z,5.97
2018-09-27T09:59:52.479Z,6.17
2018-09-27T10:02:20.728Z,5.70
2018-09-27T10:04:48.960Z,5.40
2018-09-27T10:07:17.390Z,5.83
2018-09-27T10:09:45.697Z,7.93
2018-09-27T10:12:14.071Z,7.00
2018-09-27T10:14:42.379Z,6.77
2018-09-27T10:17:10.643Z,7.27
2018-09-27T10:19:38.963Z,7.63
2018-09-27T10:22:07.511Z,6.73
2018-09-27T10:24:35.796Z,6.03
2018-09-27T10:27:04.120Z,6.13
2018-09-27T10:29:32.412Z,6.47
2018-09-27T10:32:00.788Z,5.90
2018-09-27T10:34:29.139Z,6.83
2018-09-27T10:36:57.435Z,6.40
2018-09-27T10:39:25.808Z,6.20
2018-09-27T10:41:54.202Z,6.80
2018-09-27T10:44:22.563Z,6.80
2018-09-27T10:46:50.926Z,4.80
2018-09-27T10:49:19.230Z,6.27
2018-09-27T10:51:47.563Z,6.47
2018-09-27T10:54:15.883Z,6.00
2018-09-27T10:56:44.144Z,6.40
2018-09-27T10:59:12.438Z,4.63
2018-09-27T11:01:40.734Z,5.80
2018-09-27T11:04:09.143Z,5.67
2018-09-27T11:06:37.487Z,6.67
2018-09-27T11:09:07.919Z,5.83
2018-09-27T11:11:36.314Z,6.00
2018-09-27T11:14:04.468Z,6.33
2018-09-27T11:16:32.772Z,6.20
2018-09-27T11:19:01.051Z,6.70
2018-09-27T11:21:29.299Z,5.60
2018-09-27T11:23:57.811Z,6.73
2018-09-27T11:26:26.133Z,4.57
2018-09-27T11:28:59.856Z,5.40
2018-09-27T11:32:36.315Z,4.80
2018-09-27T11:35:04.544Z,3.57
2018-09-27T11:37:32.825Z,4.43
2018-09-27T11:40:01.133Z,3.20
2018-09-27T11:42:29.424Z,4.20
2018-09-27T11:44:57.634Z,3.50
2018-09-27T11:47:26.022Z,4.40
2018-09-27T11:49:54.552Z,3.47
2018-09-27T11:52:22.905Z,3.57
2018-09-27T11:54:51.211Z,2.97
2018-09-27T11:57:19.700Z,3.00
2018-09-27T11:59:48.012Z,3.37
2018-09-27T12:02:16.300Z,2.77
2018-09-27T12:04:44.604Z,2.90
2018-09-27T12:07:13.424Z,2.40
2018-09-27T12:09:41.896Z,4.70
2018-09-27T12:12:10.375Z,3.33
2018-09-27T12:14:38.705Z,3.50
2018-09-27T12:17:06.988Z,3.47
2018-09-27T12:19:35.306Z,3.40
2018-09-27T12:22:03.513Z,3.00
2018-09-27T12:24:31.829Z,3.40
2018-09-27T12:27:00.326Z,3.97
2018-09-27T12:29:28.520Z,2.37
2018-09-27T12:31:56.893Z,2.37
2018-09-27T12:34:25.433Z,2.77
2018-09-27T12:36:53.718Z,2.33
2018-09-27T12:39:22.005Z,2.23
2018-09-27T12:41:50.362Z,2.70
2018-09-27T12:44:18.552Z,2.43
2018-09-27T12:46:46.874Z,2.03
2018-09-27T12:49:15.151Z,2.50
2018-09-27T12:51:43.463Z,2.40
2018-09-27T12:54:11.547Z,2.30
2018-09-27T12:56:39.818Z,1.93
2018-09-27T12:59:08.273Z,3.30
2018-09-27T13:01:36.844Z,2.40
2018-09-27T13:04:05.263Z,2.53
2018-09-27T13:06:33.557Z,2.43
2018-09-27T13:09:02.010Z,2.00
2018-09-27T13:11:30.184Z,2.00
2018-09-27T13:13:58.480Z,2.47
2018-09-27T13:16:26.707Z,2.20
2018-09-27T13:18:57.940Z,1.97
2018-09-27T13:21:23.248Z,2.00
2018-09-27T13:23:51.526Z,1.80
2018-09-27T13:26:19.702Z,1.40
2018-09-27T13:28:47.992Z,1.40
2018-09-27T13:31:16.496Z,1.20
2018-09-27T13:33:44.676Z,1.60
2018-09-27T13:36:12.980Z,1.20
2018-09-27T13:38:41.288Z,1.80
2018-09-27T13:41:09.565Z,1.00
2018-09-27T13:43:37.913Z,1.27
2018-09-27T13:46:06.385Z,1.40
2018-09-27T13:48:34.757Z,1.03
2018-09-27T13:51:03.079Z,1.10
2018-09-27T13:53:31.384Z,1.07
2018-09-27T13:55:59.760Z,1.50
2018-09-27T13:58:28.059Z,1.20
2018-09-27T14:00:56.397Z,1.10
2018-09-27T14:03:24.730Z,1.50
2018-09-27T14:05:52.878Z,0.97
2018-09-27T14:08:21.227Z,1.40
2018-09-27T14:10:49.556Z,1.20
2018-09-27T14:13:17.925Z,1.17
2018-09-27T14:15:46.330Z,1.30
2018-09-27T14:18:14.507Z,1.23
2018-09-27T14:20:42.916Z,1.27
2018-09-27T14:23:11.140Z,1.33
2018-09-27T14:25:39.562Z,1.40
2018-09-27T14:28:07.700Z,1.30
2018-09-27T14:30:36.060Z,1.60
2018-09-27T14:33:04.277Z,1.30
2018-09-27T14:35:32.630Z,1.40
2018-09-27T14:38:00.870Z,1.70
2018-09-27T14:40:29.135Z,1.53
2018-09-27T14:42:57.639Z,1.17
2018-09-27T14:45:25.940Z,1.30
2018-09-27T14:47:54.324Z,1.37
2018-09-27T14:50:22.494Z,1.43
2018-09-27T14:52:50.760Z,1.50
2018-09-27T14:55:19.202Z,1.37
2018-09-27T14:57:47.481Z,1.37
2018-09-27T15:00:15.723Z,1.30
2018-09-27T15:02:43.968Z,1.20
2018-09-27T15:05:12.261Z,1.23
2018-09-27T15:07:40.626Z,1.37
2018-09-27T15:10:09.021Z,1.50
2018-09-27T15:12:37.295Z,1.30
2018-09-27T15:15:06.327Z,1.40
2018-09-27T15:17:34.643Z,1.37
2018-09-27T15:20:02.957Z,1.40
2018-09-27T15:22:31.279Z,1.50
2018-09-27T15:24:59.591Z,1.20
2018-09-27T15:27:27.850Z,1.20
2018-09-27T15:29:56.198Z,1.50
2018-09-27T15:32:24.595Z,1.53
2018-09-27T15:34:52.840Z,1.40
2018-09-27T15:37:21.168Z,1.60
2018-09-27T15:39:49.488Z,1.40
2018-09-27T15:42:17.759Z,1.50
2018-09-27T15:44:46.140Z,1.30
2018-09-27T15:47:14.528Z,1.40
2018-09-27T15:49:42.897Z,1.30
2018-09-27T15:52:11.167Z,1.37
2018-09-27T15:54:39.349Z,1.57
2018-09-27T15:57:07.745Z,1.40
2018-09-27T15:59:35.936Z,1.10
2018-09-27T16:02:04.458Z,1.40
2018-09-27T16:04:32.725Z,1.47
2018-09-27T16:07:01.088Z,1.40
2018-09-27T16:09:29.363Z,1.33
2018-09-27T16:11:57.813Z,1.20
2018-09-27T16:14:26.050Z,1.40
2018-09-27T16:16:54.375Z,1.60
2018-09-27T16:19:22.588Z,1.13
2018-09-27T16:21:50.846Z,1.30
2018-09-27T16:24:19.140Z,1.40
2018-09-27T16:26:47.404Z,1.30
2018-09-27T16:29:15.634Z,1.10
2018-09-27T16:31:43.968Z,1.40
2018-09-27T16:34:12.320Z,1.33
2018-09-27T16:36:40.652Z,1.30
2018-09-27T16:39:09.909Z,1.40
2018-09-27T16:41:38.608Z,1.50
2018-09-27T16:44:07.107Z,1.60
2018-09-27T16:46:35.672Z,1.47
2018-09-27T16:49:04.516Z,1.30
2018-09-27T16:51:32.739Z,1.33
2018-09-27T16:54:01.064Z,1.20
2018-09-27T16:56:29.384Z,1.30
2018-09-27T16:58:57.646Z,2.67
2018-09-27T17:02:05.562Z,1.17
2018-09-27T17:04:33.868Z,1.30
2018-09-27T17:07:02.218Z,1.17
2018-09-27T17:09:30.420Z,1.40
2018-09-27T17:11:59.301Z,1.20
2018-09-27T17:14:27.576Z,1.37
2018-09-27T17:16:55.856Z,1.40
2018-09-27T17:19:24.172Z,1.30
2018-09-27T17:21:52.492Z,1.60
2018-09-27T17:24:20.888Z,2.50
2018-09-27T17:26:49.159Z,1.40
2018-09-27T17:29:17.420Z,1.90
2018-09-27T17:31:45.771Z,1.60
2018-09-27T17:34:13.947Z,1.53
2018-09-27T17:36:42.230Z,1.30
2018-09-27T17:39:10.547Z,1.43
2018-09-27T17:41:38.884Z,1.50
2018-09-27T17:44:07.442Z,1.50
2018-09-27T17:46:35.940Z,1.47
2018-09-27T17:49:04.204Z,1.40
2018-09-27T17:51:32.494Z,1.23
2018-09-27T17:54:00.907Z,1.47
2018-09-27T17:56:29.160Z,1.50
2018-09-27T17:58:57.590Z,1.40
2018-09-27T18:01:25.837Z,1.70
2018-09-27T18:03:54.261Z,1.60
2018-09-27T18:06:22.499Z,1.60
2018-09-27T18:08:50.923Z,1.50
2018-09-27T18:11:19.356Z,1.90
2018-09-27T18:13:47.926Z,1.60
2018-09-27T18:16:16.435Z,1.63
2018-09-27T18:18:44.809Z,1.63
2018-09-27T18:21:13.120Z,1.37
2018-09-27T18:23:41.656Z,1.43
2018-09-27T18:26:10.083Z,3.60
2018-09-27T18:28:38.544Z,1.60
2018-09-27T18:31:07.040Z,1.70
2018-09-27T18:33:35.419Z,1.60
2018-09-27T18:36:03.715Z,1.70
2018-09-27T18:38:32.001Z,2.40
2018-09-27T18:41:00.257Z,3.13
2018-09-27T18:43:28.515Z,2.80
2018-09-27T18:45:57.053Z,2.40
2018-09-27T18:48:25.282Z,2.73
2018-09-27T18:50:53.708Z,3.20
2018-09-27T18:53:22.886Z,2.33
2018-09-27T18:55:51.110Z,2.33
2018-09-27T18:58:19.359Z,1.93
2018-09-27T19:00:47.724Z,1.87
2018-09-27T19:03:15.949Z,1.77
2018-09-27T19:05:44.279Z,1.90
2018-09-27T19:08:14.283Z,1.80
2018-09-27T19:10:42.701Z,1.87
2018-09-27T19:13:11.151Z,2.67
2018-09-27T19:15:39.473Z,2.60
2018-09-27T19:18:07.743Z,6.87
2018-09-27T19:20:36.038Z,4.67
2018-09-27T19:23:04.291Z,6.20
2018-09-27T19:25:33.314Z,5.00
2018-09-27T19:28:01.698Z,3.20
2018-09-27T19:30:29.991Z,3.43
2018-09-27T19:32:58.309Z,2.30
2018-09-27T19:35:26.595Z,3.23
2018-09-27T19:37:54.864Z,2.20
2018-09-27T19:40:23.128Z,3.03
2018-09-27T19:42:51.416Z,3.40
2018-09-27T19:45:19.724Z,2.77
2018-09-27T19:47:48.015Z,2.50
2018-09-27T19:50:16.192Z,2.20
2018-09-27T19:52:44.463Z,2.50
2018-09-27T19:55:13.356Z,3.02
2018-09-27T19:57:41.640Z,3.10
2018-09-27T20:00:10.119Z,3.07
2018-09-27T20:02:38.435Z,2.52
2018-09-27T20:05:06.711Z,2.57
2018-09-27T20:07:35.042Z,2.10
2018-09-27T20:10:03.410Z,2.50
2018-09-27T20:12:31.654Z,2.00
2018-09-27T20:14:59.945Z,2.30
2018-09-27T20:17:28.369Z,2.30
2018-09-27T20:19:56.743Z,3.30
2018-09-27T20:22:25.056Z,2.60
2018-09-27T20:24:53.460Z,2.70
2018-09-27T20:27:21.755Z,2.50
2018-09-27T20:29:49.979Z,2.62
2018-09-27T20:32:18.207Z,3.53
2018-09-27T20:34:46.504Z,2.90
2018-09-27T20:37:14.909Z,3.30
2018-09-27T20:39:43.181Z,2.40
2018-09-27T20:42:11.363Z,3.37
2018-09-27T20:44:39.683Z,3.40
2018-09-27T20:47:07.900Z,2.80
2018-09-27T20:49:37.116Z,2.62
2018-09-27T20:52:05.410Z,2.33
2018-09-27T20:54:36.584Z,3.07
2018-09-27T20:57:04.805Z,3.17
2018-09-27T20:59:33.105Z,3.17
2018-09-27T21:02:01.453Z,4.05
2018-09-27T21:04:29.739Z,2.90
2018-09-27T21:06:57.974Z,3.73
2018-09-27T21:09:26.297Z,3.10
2018-09-27T21:11:54.577Z,3.90
2018-09-27T21:14:22.939Z,2.97
2018-09-27T21:16:51.234Z,2.30
2018-09-27T21:19:19.480Z,3.10
2018-09-27T21:21:47.740Z,2.40
2018-09-27T21:24:16.040Z,3.43
2018-09-27T21:26:44.360Z,2.90
2018-09-27T21:29:12.676Z,2.67
2018-09-27T21:31:40.950Z,2.90
2018-09-27T21:34:09.094Z,3.20
2018-09-27T21:36:37.364Z,3.33
2018-09-27T21:39:06.827Z,3.77
2018-09-27T21:41:35.096Z,3.37
2018-09-27T21:44:03.388Z,3.25
2018-09-27T21:46:31.652Z,3.60
2018-09-27T21:48:59.908Z,3.13
2018-09-27T21:51:28.349Z,3.37
2018-09-27T21:53:56.687Z,3.25
2018-09-27T21:56:28.035Z,2.77
2018-09-27T21:58:56.299Z,3.37
2018-09-27T22:02:40.512Z,3.50
2018-09-27T22:05:08.753Z,4.60
2018-09-27T22:07:37.011Z,6.10
2018-09-27T22:10:05.369Z,5.63
2018-09-27T22:12:33.697Z,7.33
2018-09-27T22:15:02.012Z,7.65
2018-09-27T22:17:30.282Z,6.00
2018-09-27T22:19:58.533Z,6.58
2018-09-27T22:22:26.815Z,5.70
2018-09-27T22:24:54.994Z,4.30
2018-09-27T22:27:23.232Z,3.90
2018-09-27T22:29:51.516Z,3.53
2018-09-27T22:32:19.899Z,4.50
2018-09-27T22:34:48.191Z,3.47
2018-09-27T22:37:16.494Z,3.13
2018-09-27T22:39:44.845Z,3.47
2018-09-27T22:42:13.172Z,3.10
2018-09-27T22:44:41.695Z,3.50
2018-09-27T22:47:09.920Z,3.60
2018-09-27T22:49:38.195Z,3.10
2018-09-27T22:52:06.601Z,3.90
2018-09-27T22:54:34.803Z,3.43
2018-09-27T22:57:03.339Z,4.10
2018-09-27T22:59:31.600Z,3.45
2018-09-27T23:01:59.863Z,2.70
2018-09-27T23:04:28.172Z,3.43
2018-09-27T23:06:56.470Z,4.07
2018-09-27T23:09:24.811Z,2.60
2018-09-27T23:11:53.132Z,4.15
2018-09-27T23:14:21.411Z,3.50
2018-09-27T23:16:49.796Z,3.43
2018-09-27T23:19:18.067Z,4.83
2018-09-27T23:21:46.348Z,3.10
2018-09-27T23:24:14.744Z,3.77
2018-09-27T23:26:43.072Z,2.70
2018-09-27T23:29:11.328Z,3.13
2018-09-27T23:31:39.575Z,4.05
2018-09-27T23:34:07.864Z,3.57
2018-09-27T23:36:36.141Z,3.37
2018-09-27T23:39:05.532Z,3.27
2018-09-27T23:41:33.745Z,3.67
2018-09-27T23:44:02.023Z,4.22
2018-09-27T23:46:30.301Z,3.17
2018-09-27T23:48:58.694Z,3.73
2018-09-27T23:51:27.329Z,3.60
2018-09-27T23:53:55.606Z,3.20
2018-09-27T23:56:23.932Z,3.70
2018-09-27T23:58:52.147Z,5.00
